Time;durP1;ratioP1;P1;durP2;ratioP2;P2;SDS_P1;SDS_P2;PMS_P1;PMS_P2;Temp;Humidity;BMP_temperature;BMP_pressure;BME280_temperature;BME280_humidity;BME280_pressure;Samples;Min_cycle;Max_cycle;Signal;HPM_P1;HPM_P2
2023/04/14 00:01:17;;;;;;;15.23;8.02;;;;;;;9.68;61.04;98414.19;4967468;28;20131;-86
2023/04/14 00:03:43;;;;;;;17.25;8.20;;;;;;;9.71;61.06;98428.94;4967913;28;20029;-87
2023/04/14 00:06:08;;;;;;;18.63;8.07;;;;;;;9.62;61.29;98425.28;4967371;28;20389;-86
2023/04/14 00:08:34;;;;;;;16.42;8.27;;;;;;;9.64;61.20;98415.06;4966722;28;20045;-85
2023/04/14 00:10:59;;;;;;;17.52;8.98;;;;;;;9.53;61.54;98409.00;4967674;28;20072;-87
2023/04/14 00:13:25;;;;;;;41.05;9.30;;;;;;;9.59;61.60;98429.38;4969043;28;20033;-93
2023/04/14 00:15:50;;;;;;;14.60;8.15;;;;;;;9.43;61.64;98412.59;4970209;28;20490;-92
2023/04/14 00:18:16;;;;;;;19.02;8.77;;;;;;;9.42;61.89;98428.97;4969483;28;20037;-93
2023/04/14 00:20:41;;;;;;;15.50;9.02;;;;;;;9.27;62.28;98406.56;4969756;28;20037;-92
2023/04/14 00:23:07;;;;;;;15.77;8.32;;;;;;;9.27;62.40;98411.13;4970049;28;20048;-93
2023/04/14 00:25:32;;;;;;;16.13;7.30;;;;;;;9.15;62.61;98408.03;4969791;28;20030;-92
2023/04/14 00:27:57;;;;;;;18.33;8.52;;;;;;;9.22;62.68;98416.56;4986227;28;20088;-95
2023/04/14 00:30:23;;;;;;;15.73;8.52;;;;;;;9.17;62.48;98417.41;4967980;28;20035;-92
2023/04/14 00:32:49;;;;;;;15.00;7.43;;;;;;;9.18;63.00;98416.31;4969862;28;20485;-95
2023/04/14 00:35:14;;;;;;;16.92;8.30;;;;;;;9.10;63.26;98417.72;4969232;28;20033;-94
2023/04/14 00:37:40;;;;;;;19.13;8.43;;;;;;;9.10;62.93;98419.63;4969507;28;20034;-94
2023/04/14 00:40:07;;;;;;;12.65;8.18;;;;;;;9.00;63.15;98392.84;4984208;28;20049;-94
2023/04/14 00:42:40;;;;;;;14.00;8.13;;;;;;;9.09;63.28;98407.28;4969215;28;20018;-93
2023/04/14 00:45:06;;;;;;;15.50;8.57;;;;;;;9.16;63.03;98421.19;4970317;28;20068;-93
2023/04/14 00:47:32;;;;;;;12.48;8.05;;;;;;;9.05;63.45;98404.34;4969348;28;20038;-93
2023/04/14 00:49:57;;;;;;;15.25;7.95;;;;;;;9.14;62.90;98406.44;4970420;28;20049;-93
2023/04/14 00:52:23;;;;;;;18.40;9.20;;;;;;;9.08;63.34;98411.84;4969101;28;20040;-94
2023/04/14 00:54:48;;;;;;;15.38;8.48;;;;;;;9.15;63.59;98424.13;4970188;28;20566;-93
2023/04/14 00:57:14;;;;;;;16.73;8.88;;;;;;;9.01;63.34;98406.00;4968434;28;20040;-93
2023/04/14 00:59:40;;;;;;;13.30;8.70;;;;;;;8.95;63.61;98401.75;4969720;28;20038;-94
2023/04/14 01:02:05;;;;;;;13.93;8.45;;;;;;;9.09;63.33;98428.78;4967903;28;20173;-92
2023/04/14 01:04:31;;;;;;;11.55;8.07;;;;;;;9.09;62.85;98426.09;4968812;28;20034;-93
2023/04/14 01:06:57;;;;;;;18.42;9.80;;;;;;;9.15;62.82;98426.81;4969723;28;20131;-95
2023/04/14 01:09:23;;;;;;;14.75;8.85;;;;;;;9.02;63.39;98401.44;4968788;28;20045;-93
2023/04/14 01:12:01;;;;;;;16.17;9.20;;;;;;;9.04;63.40;98408.13;4969090;28;20034;-94
2023/04/14 01:14:54;;;;;;;18.98;9.15;;;;;;;9.07;63.87;98412.13;5002277;28;20056;-93
2023/04/14 01:17:26;;;;;;;17.75;9.13;;;;;;;9.07;63.72;98420.19;4982396;28;20034;-94
2023/04/14 01:20:27;;;;;;;18.80;8.80;;;;;;;9.01;63.73;98421.31;5001265;28;20623;-93
2023/04/14 01:23:05;;;;;;;18.75;9.40;;;;;;;8.95;64.10;98407.13;4949280;28;20069;-93
2023/04/14 01:25:47;;;;;;;19.63;9.60;;;;;;;9.04;63.42;98416.16;4970656;28;20033;-92
2023/04/14 01:28:16;;;;;;;;;;;;;;;8.90;64.32;98407.16;5001700;28;20077;-94
2023/04/14 01:31:03;;;;;;;17.35;7.78;;;;;;;8.90;64.18;98409.84;5001320;28;19937;-94
2023/04/14 01:33:29;;;;;;;14.35;7.38;;;;;;;8.78;64.76;98404.84;5001020;28;20038;-93
2023/04/14 01:35:55;;;;;;;13.40;7.30;;;;;;;8.72;64.31;98391.75;4966021;28;20061;-94
2023/04/14 01:38:26;;;;;;;15.15;7.75;;;;;;;8.68;64.75;98399.56;4964500;28;20030;-94
2023/04/14 01:40:55;;;;;;;18.30;8.32;;;;;;;8.76;64.32;98415.06;4965578;28;20072;-93
2023/04/14 01:43:23;;;;;;;12.07;6.68;;;;;;;8.67;64.55;98409.50;4966356;28;20094;-93
2023/04/14 01:45:50;;;;;;;13.68;7.22;;;;;;;8.80;64.27;98415.28;4964969;28;20050;-93
2023/04/14 01:48:15;;;;;;;12.13;7.53;;;;;;;8.70;64.49;98410.81;4964531;28;20034;-94
2023/04/14 01:50:41;;;;;;;16.10;7.72;;;;;;;8.65;64.66;98394.75;4965648;28;20030;-93
2023/04/14 01:53:06;;;;;;;15.77;8.07;;;;;;;8.66;65.01;98399.84;4965987;28;20520;-93
2023/04/14 01:55:32;;;;;;;11.38;7.05;;;;;;;8.81;64.37;98406.16;4965114;28;20038;-93
2023/04/14 01:57:58;;;;;;;12.85;7.13;;;;;;;8.82;64.32;98408.59;4964501;28;20113;-93
2023/04/14 02:00:23;;;;;;;10.45;6.93;;;;;;;8.78;64.63;98404.03;4966129;28;20035;-92
2023/04/14 02:02:49;;;;;;;13.13;7.57;;;;;;;8.78;64.60;98402.16;4965494;28;20038;-93
2023/04/14 02:05:14;;;;;;;15.18;7.28;;;;;;;8.81;64.64;98395.44;4963590;28;20030;-93
2023/04/14 02:07:40;;;;;;;12.48;7.68;;;;;;;8.76;64.61;98392.78;4964140;28;20108;-93
2023/04/14 02:10:08;;;;;;;12.77;6.65;;;;;;;8.80;64.70;98399.19;4964703;28;20109;-94
2023/04/14 02:12:34;;;;;;;16.60;8.02;;;;;;;8.67;65.19;98385.34;4966740;28;20034;-93
2023/04/14 02:14:59;;;;;;;15.10;7.57;;;;;;;8.73;65.47;98382.63;4968283;28;20041;-94
2023/04/14 02:17:25;;;;;;;15.70;7.63;;;;;;;8.84;64.66;98384.94;4967566;28;20034;-93
2023/04/14 02:19:50;;;;;;;13.68;7.10;;;;;;;8.95;64.45;98403.66;4968325;28;20485;-92
2023/04/14 02:22:16;;;;;;;14.02;7.38;;;;;;;8.94;64.33;98391.28;4967679;28;20042;-93
2023/04/14 02:24:41;;;;;;;13.02;7.93;;;;;;;9.02;63.68;98378.06;4969035;28;20034;-94
2023/04/14 02:27:17;;;;;;;14.13;7.85;;;;;;;9.20;63.27;98381.13;4968056;28;20027;-93
2023/04/14 02:29:46;;;;;;;12.93;7.43;;;;;;;9.30;62.90;98386.41;4968536;28;20069;-93
2023/04/14 02:32:16;;;;;;;13.98;7.78;;;;;;;9.24;63.48;98369.53;4968947;28;20034;-93
2023/04/14 02:34:49;;;;;;;21.50;8.43;;;;;;;9.43;62.92;98393.00;4968706;28;20022;-93
2023/04/14 02:37:17;;;;;;;13.93;7.00;;;;;;;9.31;63.04;98377.25;4967610;28;20113;-93
2023/04/14 02:39:44;;;;;;;11.75;7.00;;;;;;;9.44;62.66;98378.44;4967994;28;20476;-94
2023/04/14 02:42:16;;;;;;;14.93;7.40;;;;;;;9.55;62.79;98377.28;4968020;28;20030;-93
2023/04/14 02:44:50;;;;;;;13.77;7.15;;;;;;;9.41;63.17;98358.34;4966152;28;20127;-94
2023/04/14 02:47:22;;;;;;;13.32;7.13;;;;;;;9.42;63.25;98357.28;4967729;28;20128;-94
2023/04/14 02:49:47;;;;;;;13.95;6.55;;;;;;;9.45;62.97;98364.75;4968812;28;20037;-93
2023/04/14 02:52:14;;;;;;;11.07;7.05;;;;;;;9.42;63.26;98351.91;4967910;28;20034;-93
2023/04/14 02:54:40;;;;;;;14.02;7.70;;;;;;;9.54;62.98;98358.75;4968858;28;20424;-92
2023/04/14 02:57:06;;;;;;;13.15;7.35;;;;;;;9.61;62.77;98367.28;4967496;28;20053;-93
2023/04/14 02:59:32;;;;;;;16.73;7.47;;;;;;;9.64;62.78;98361.31;4967659;28;20026;-94
2023/04/14 03:02:03;;;;;;;11.32;6.80;;;;;;;9.53;62.68;98354.47;4967048;28;20508;-94
2023/04/14 03:04:35;;;;;;;10.57;6.63;;;;;;;9.73;62.00;98364.16;4969482;28;20034;-94
2023/04/14 03:07:00;;;;;;;13.57;6.88;;;;;;;9.74;63.08;98371.94;4968174;28;20065;-92
2023/04/14 03:09:26;;;;;;;11.80;7.70;;;;;;;9.67;62.79;98377.66;4965341;28;20107;-94
2023/04/14 03:11:53;;;;;;;11.30;7.05;;;;;;;9.59;63.13;98386.38;4947594;28;20121;-94
2023/04/14 03:14:19;;;;;;;10.13;6.65;;;;;;;9.43;63.12;98363.44;4947534;28;20039;-93
2023/04/14 03:16:45;;;;;;;12.50;6.85;;;;;;;9.42;63.24;98362.63;4948982;28;20143;-94
2023/04/14 03:19:11;;;;;;;17.92;8.05;;;;;;;9.43;63.92;98363.44;4948988;28;20070;-94
2023/04/14 03:21:37;;;;;;;12.15;7.10;;;;;;;9.45;63.11;98359.38;4948320;28;20035;-92
2023/04/14 03:24:03;;;;;;;14.95;7.10;;;;;;;9.40;63.97;98375.56;4947571;28;20094;-93
2023/04/14 03:26:28;;;;;;;17.52;7.20;;;;;;;9.32;63.88;98376.19;4949555;28;20055;-93
2023/04/14 03:28:54;;;;;;;14.63;7.18;;;;;;;9.26;63.74;98361.19;4949442;28;20015;-92
2023/04/14 03:31:20;;;;;;;11.93;7.40;;;;;;;9.33;63.45;98364.34;4964614;28;20038;-93
2023/04/14 03:33:46;;;;;;;11.30;7.07;;;;;;;9.51;63.43;98379.72;4948158;28;20038;-94
2023/04/14 03:36:11;;;;;;;16.40;7.13;;;;;;;9.46;64.04;98368.22;4948101;28;20031;-92
2023/04/14 03:38:37;;;;;;;11.63;6.85;;;;;;;9.37;63.90;98364.56;4947574;28;20097;-93
2023/04/14 03:41:04;;;;;;;13.35;7.35;;;;;;;9.47;63.09;98364.47;4946498;28;20039;-93
2023/04/14 03:43:32;;;;;;;16.90;7.70;;;;;;;9.37;64.06;98360.00;4947285;28;20121;-94
2023/04/14 03:45:58;;;;;;;16.02;7.07;;;;;;;9.49;63.50;98368.47;4948378;28;20037;-94
2023/04/14 03:48:25;;;;;;;11.82;7.18;;;;;;;9.41;63.45;98355.66;4947216;28;20031;-93
2023/04/14 03:50:50;;;;;;;14.85;7.60;;;;;;;9.44;63.72;98360.47;4947360;28;20056;-94
2023/04/14 03:53:17;;;;;;;15.45;8.45;;;;;;;9.45;63.66;98362.06;4947678;28;20055;-95
2023/04/14 03:55:43;;;;;;;13.75;7.05;;;;;;;9.56;63.64;98361.94;4947304;28;20039;-92
2023/04/14 03:58:10;;;;;;;16.63;7.50;;;;;;;9.42;63.94;98357.28;4946636;28;20098;-91
2023/04/14 04:00:35;;;;;;;11.20;7.18;;;;;;;9.35;64.10;98354.09;4947380;28;20113;-93
2023/04/14 04:03:01;;;;;;;14.93;8.07;;;;;;;9.33;64.47;98358.16;4946873;28;20037;-92
2023/04/14 04:05:26;;;;;;;14.10;7.78;;;;;;;9.22;64.38;98344.84;4947580;28;20039;-93
2023/04/14 04:07:52;;;;;;;11.55;6.95;;;;;;;9.34;64.10;98365.13;4951630;28;20050;-91
2023/04/14 04:10:18;;;;;;;12.40;7.45;;;;;;;9.39;64.19;98367.78;4966276;28;20374;-92
2023/04/14 04:12:43;;;;;;;13.05;6.93;;;;;;;9.46;63.57;98352.91;4965029;28;20033;-93
2023/04/14 04:15:09;;;;;;;20.77;7.50;;;;;;;9.58;63.35;98359.78;4965702;28;20492;-93
2023/04/14 04:17:35;;;;;;;18.20;7.63;;;;;;;9.60;63.11;98347.63;4967287;28;20027;-93
2023/04/14 04:20:01;;;;;;;20.77;8.25;;;;;;;9.61;63.79;98361.91;4966974;28;20382;-93
2023/04/14 04:22:26;;;;;;;14.85;8.32;;;;;;;9.55;64.14;98360.34;4967126;28;20048;-92
2023/04/14 04:24:51;;;;;;;17.35;9.30;;;;;;;9.69;63.91;98359.38;4968187;28;20061;-93
2023/04/14 04:27:17;;;;;;;20.73;10.15;;;;;;;9.70;63.61;98342.13;4967842;28;20030;-94
2023/04/14 04:29:43;;;;;;;16.60;8.18;;;;;;;9.76;63.76;98368.97;4966195;28;20065;-93
2023/04/14 04:32:08;;;;;;;14.90;7.95;;;;;;;9.66;63.68;98370.69;4963520;28;20038;-88
2023/04/14 04:34:34;;;;;;;19.27;7.90;;;;;;;9.70;63.58;98370.91;4978057;28;20412;-86
2023/04/14 04:37:00;;;;;;;20.15;7.90;;;;;;;9.83;63.21;98367.50;4982529;28;20042;-88
2023/04/14 04:39:25;;;;;;;12.20;7.15;;;;;;;9.78;63.21;98350.66;4987463;28;20029;-87
2023/04/14 04:42:00;;;;;;;21.45;7.78;;;;;;;9.80;63.06;98343.91;4982623;28;20049;-87
2023/04/14 04:44:26;;;;;;;15.52;7.80;;;;;;;10.01;62.67;98349.03;4966829;28;20044;-88
2023/04/14 04:46:55;;;;;;;17.25;8.32;;;;;;;10.04;62.81;98343.03;4965722;28;20037;-86
2023/04/14 04:49:22;;;;;;;18.20;9.07;;;;;;;10.00;62.97;98350.09;4984297;28;20080;-88
2023/04/14 04:51:47;;;;;;;20.13;7.65;;;;;;;10.06;63.30;98357.78;4982892;28;20035;-86
2023/04/14 04:54:13;;;;;;;13.65;7.28;;;;;;;9.95;63.25;98336.72;4982720;28;20063;-86
2023/04/14 04:56:40;;;;;;;13.52;7.68;;;;;;;10.02;63.23;98339.84;4982686;28;20417;-87
2023/04/14 04:59:05;;;;;;;16.13;7.35;;;;;;;10.14;63.42;98352.88;4983038;28;20034;-86
2023/04/14 05:01:31;;;;;;;19.88;8.27;;;;;;;10.19;62.76;98333.97;4966256;28;20448;-87
2023/04/14 05:03:56;;;;;;;12.70;7.70;;;;;;;10.37;61.99;98348.53;4981403;28;20503;-86
2023/04/14 05:06:22;;;;;;;13.75;8.75;;;;;;;10.48;61.98;98334.63;4983992;28;20045;-86
2023/04/14 05:08:50;;;;;;;15.30;8.85;;;;;;;10.67;61.40;98341.88;4982518;28;20050;-85
2023/04/14 05:11:15;;;;;;;20.38;8.30;;;;;;;10.64;61.19;98329.78;4983392;28;20053;-86
2023/04/14 05:13:41;;;;;;;16.75;7.72;;;;;;;10.77;61.06;98330.94;4982578;28;20044;-86
2023/04/14 05:16:07;;;;;;;13.25;7.22;;;;;;;10.72;61.08;98310.28;4981563;28;20073;-87
2023/04/14 05:18:33;;;;;;;17.45;7.70;;;;;;;10.89;60.58;98320.50;4982730;28;20033;-87
2023/04/14 05:21:05;;;;;;;17.38;8.30;;;;;;;11.05;60.44;98320.22;4982977;28;20053;-86
2023/04/14 05:23:31;;;;;;;15.13;7.18;;;;;;;11.22;60.39;98319.63;4983163;28;20045;-87
2023/04/14 05:25:57;;;;;;;17.23;8.88;;;;;;;11.32;59.43;98308.66;4982555;28;20049;-87
2023/04/14 05:28:22;;;;;;;15.65;7.40;;;;;;;11.49;59.17;98302.66;4983819;28;20479;-86
2023/04/14 05:30:49;;;;;;;15.48;7.00;;;;;;;11.68;59.10;98299.84;4982922;28;20485;-86
2023/04/14 05:33:14;;;;;;;16.42;7.63;;;;;;;11.75;58.62;98281.38;4982707;28;20037;-86
2023/04/14 05:35:40;;;;;;;16.73;7.95;;;;;;;12.03;58.67;98303.69;4984176;28;20100;-87
2023/04/14 05:38:06;;;;;;;5.18;3.40;;;;;;;12.24;52.39;98317.53;4982549;28;20038;-86
2023/04/14 05:40:32;;;;;;;7.43;2.72;;;;;;;12.61;49.94;98312.06;4982465;28;20065;-87
2023/04/14 05:42:58;;;;;;;5.65;2.55;;;;;;;13.00;48.89;98315.97;4982818;28;20026;-87
2023/04/14 05:45:24;;;;;;;4.10;2.47;;;;;;;13.40;48.13;98326.81;4965713;28;20112;-86
2023/04/14 05:47:49;;;;;;;6.88;3.17;;;;;;;13.71;47.07;98326.75;4969162;28;20053;-87
2023/04/14 05:50:15;;;;;;;14.88;5.15;;;;;;;14.07;49.86;98336.50;4986170;28;20037;-88
2023/04/14 05:52:40;;;;;;;12.00;4.40;;;;;;;14.32;49.26;98330.34;4974355;28;20046;-87
2023/04/14 05:55:06;;;;;;;19.58;6.80;;;;;;;14.51;51.23;98335.41;4986171;28;20045;-88
2023/04/14 05:57:32;;;;;;;13.45;5.32;;;;;;;14.66;49.28;98327.94;4976066;28;20034;-88
2023/04/14 05:59:57;;;;;;;11.15;4.55;;;;;;;14.81;48.22;98323.94;4972168;28;20133;-86
2023/04/14 06:02:23;;;;;;;6.82;3.70;;;;;;;14.96;46.91;98323.41;4986531;28;20042;-86
2023/04/14 06:04:48;;;;;;;9.73;4.25;;;;;;;15.04;44.06;98314.44;4986177;28;20095;-89
2023/04/14 06:07:14;;;;;;;8.02;2.58;;;;;;;15.22;43.42;98319.84;4969311;28;20050;-88
2023/04/14 06:09:41;;;;;;;8.23;3.28;;;;;;;15.31;42.96;98302.38;4985731;28;20049;-88
2023/04/14 06:12:07;;;;;;;4.55;2.67;;;;;;;15.54;42.78;98315.69;4970165;28;20133;-89
2023/04/14 06:14:33;;;;;;;8.30;3.15;;;;;;;15.70;42.50;98313.22;4985961;28;20554;-90
2023/04/14 06:16:58;;;;;;;7.00;2.60;;;;;;;15.85;41.86;98306.44;4986422;28;20080;-90
2023/04/14 06:19:24;;;;;;;4.55;2.70;;;;;;;15.92;41.36;98293.94;4978991;28;20033;-89
2023/04/14 06:21:49;;;;;;;3.47;2.53;;;;;;;16.05;41.51;98292.09;4985243;28;20045;-89
2023/04/14 06:24:17;;;;;;;2.90;2.10;;;;;;;16.22;41.28;98291.16;4972684;28;20042;-87
2023/04/14 06:26:42;;;;;;;5.18;3.45;;;;;;;16.39;41.21;98295.63;4986325;28;20417;-87
2023/04/14 06:29:08;;;;;;;4.28;2.22;;;;;;;16.35;41.38;98279.22;4986153;28;20041;-87
2023/04/14 06:31:34;;;;;;;6.65;2.47;;;;;;;16.43;41.00;98272.09;4987418;28;20122;-87
2023/04/14 06:33:59;;;;;;;4.78;3.15;;;;;;;16.53;41.03;98288.00;4982105;28;20037;-88
2023/04/14 06:36:25;;;;;;;5.35;3.10;;;;;;;16.61;41.22;98286.34;4984576;28;20459;-88
2023/04/14 06:38:51;;;;;;;5.55;2.50;;;;;;;16.69;40.91;98290.88;4985022;28;20477;-88
2023/04/14 06:41:17;;;;;;;6.15;2.75;;;;;;;16.75;40.59;98294.19;4969479;28;20052;-87
2023/04/14 06:43:42;;;;;;;4.28;2.50;;;;;;;16.75;40.89;98283.31;4984529;28;20041;-88
2023/04/14 06:46:08;;;;;;;5.32;2.03;;;;;;;16.88;40.43;98279.53;4984714;28;20408;-91
2023/04/14 06:48:33;;;;;;;6.32;2.38;;;;;;;17.08;39.20;98288.75;4984060;28;20061;-88
2023/04/14 06:51:02;;;;;;;4.60;2.30;;;;;;;17.17;39.05;98286.69;4984714;28;20042;-88
2023/04/14 06:53:28;;;;;;;2.85;1.70;;;;;;;17.23;39.25;98281.03;4973920;28;20037;-88
2023/04/14 06:56:00;;;;;;;7.50;2.28;;;;;;;17.35;39.31;98284.56;5000724;28;20070;-88
2023/04/14 06:58:28;;;;;;;4.50;2.15;;;;;;;17.38;39.38;98280.34;4970121;28;20052;-88
2023/04/14 07:00:55;;;;;;;4.78;2.90;;;;;;;17.46;39.30;98287.63;4970005;28;20038;-88
2023/04/14 07:03:25;;;;;;;6.97;2.38;;;;;;;17.42;39.99;98267.66;4969124;28;20057;-88
2023/04/14 07:05:51;;;;;;;5.85;2.03;;;;;;;17.33;38.12;98264.28;5002020;28;20092;-88
2023/04/14 07:08:18;;;;;;;3.47;2.20;;;;;;;17.51;38.41;98268.31;4979882;28;20079;-88
2023/04/14 07:10:43;;;;;;;3.78;2.42;;;;;;;17.62;38.06;98248.81;4980937;28;20034;-88
2023/04/14 07:13:09;;;;;;;2.22;1.60;;;;;;;17.69;37.43;98236.22;4968967;28;20069;-88
2023/04/14 07:15:34;;;;;;;2.92;1.75;;;;;;;17.89;37.28;98236.44;4981199;28;20416;-88
2023/04/14 07:18:00;;;;;;;3.47;1.90;;;;;;;18.16;36.86;98237.59;4968769;28;20512;-88
2023/04/14 07:20:25;;;;;;;4.47;2.38;;;;;;;18.25;36.36;98224.59;4976465;28;20049;-88
2023/04/14 07:22:51;;;;;;;3.67;1.83;;;;;;;18.46;35.84;98208.03;4981294;28;20104;-88
2023/04/14 07:25:17;;;;;;;2.72;2.00;;;;;;;18.93;35.95;98240.03;4981069;28;20575;-87
2023/04/14 07:27:43;;;;;;;3.90;2.10;;;;;;;19.24;35.18;98246.63;4969012;28;20092;-88
2023/04/14 07:30:08;;;;;;;3.55;1.85;;;;;;;19.50;34.63;98256.19;4964946;28;20038;-88
2023/04/14 07:32:34;;;;;;;3.63;1.92;;;;;;;19.68;34.01;98238.25;4965878;28;20120;-88
2023/04/14 07:35:02;;;;;;;7.10;2.33;;;;;;;19.88;33.24;98236.38;4980917;28;20150;-87
2023/04/14 07:37:28;;;;;;;5.32;2.65;;;;;;;20.03;33.32;98240.19;4981441;28;20126;-87
2023/04/14 07:39:54;;;;;;;3.65;2.08;;;;;;;20.08;33.58;98239.13;4965278;28;20030;-88
2023/04/14 07:42:19;;;;;;;6.22;2.40;;;;;;;20.22;33.08;98244.88;4980224;28;20034;-88
2023/04/14 07:44:45;;;;;;;4.45;1.95;;;;;;;20.37;32.75;98265.84;4980867;28;20034;-87
2023/04/14 07:47:13;;;;;;;6.32;1.80;;;;;;;20.33;32.51;98250.53;4963780;28;20524;-88
2023/04/14 07:49:38;;;;;;;4.00;2.05;;;;;;;20.35;32.45;98264.66;4980219;28;20034;-88
2023/04/14 07:52:04;;;;;;;4.15;1.80;;;;;;;20.39;32.35;98263.56;4981020;28;20457;-88
2023/04/14 07:54:30;;;;;;;4.10;1.90;;;;;;;20.42;32.92;98248.41;4964461;28;20038;-87
2023/04/14 07:56:56;;;;;;;5.32;2.20;;;;;;;20.46;33.13;98254.72;4980974;28;20037;-88
2023/04/14 07:59:22;;;;;;;6.00;2.35;;;;;;;20.47;32.99;98236.38;4980708;28;20519;-88
2023/04/14 08:01:48;;;;;;;7.00;2.22;;;;;;;20.76;32.37;98246.69;4967606;28;20100;-94
2023/04/14 08:04:13;;;;;;;8.50;4.40;;;;;;;20.77;32.04;98231.88;4968369;28;20038;-95
2023/04/14 08:06:39;;;;;;;3.47;1.90;;;;;;;20.86;32.03;98225.38;4966803;28;20509;-94
2023/04/14 08:09:04;;;;;;;3.22;1.90;;;;;;;20.65;32.64;98231.22;4981308;28;20053;-95
2023/04/14 08:11:32;;;;;;;3.28;1.70;;;;;;;20.66;32.50;98246.50;4987243;28;20036;-94
2023/04/14 08:13:59;;;;;;;4.65;2.30;;;;;;;20.71;32.63;98243.47;4971517;28;20014;-93
2023/04/14 08:16:26;;;;;;;2.90;2.00;;;;;;;20.62;32.98;98243.69;5002673;28;20029;-94
2023/04/14 08:18:52;;;;;;;3.95;2.03;;;;;;;20.36;33.46;98242.41;5002521;28;20057;-95
2023/04/14 08:21:17;;;;;;;4.53;2.40;;;;;;;20.61;33.49;98222.97;4972535;28;20034;-93
2023/04/14 08:23:43;;;;;;;3.05;1.92;;;;;;;20.74;33.09;98226.31;4987126;28;20093;-93
2023/04/14 08:26:08;;;;;;;7.38;2.65;;;;;;;20.58;33.82;98213.53;4970717;28;20060;-94
2023/04/14 08:28:39;;;;;;;3.65;2.22;;;;;;;20.49;33.90;98223.91;4987110;28;20507;-94
2023/04/14 08:31:05;;;;;;;9.65;2.67;;;;;;;20.63;34.07;98217.13;4971739;28;20030;-94
2023/04/14 08:33:32;;;;;;;6.38;2.38;;;;;;;20.28;34.31;98216.09;4988220;28;20033;-94
2023/04/14 08:36:00;;;;;;;4.20;2.50;;;;;;;20.13;35.07;98206.84;4971054;28;20034;-94
2023/04/14 08:38:29;;;;;;;6.38;2.70;;;;;;;20.30;34.72;98204.81;4987340;28;20432;-94
2023/04/14 08:40:56;;;;;;;8.75;6.78;;;;;;;20.38;35.00;98204.56;5004811;28;20038;-94
2023/04/14 08:43:23;;;;;;;16.98;3.70;;;;;;;20.38;34.66;98220.19;4988052;28;20057;-96
2023/04/14 08:45:53;;;;;;;4.57;2.70;;;;;;;20.33;34.27;98206.81;4987641;28;20556;-93
2023/04/14 08:48:19;;;;;;;6.93;2.65;;;;;;;20.23;34.67;98199.97;5002427;28;20038;-93
2023/04/14 08:51:20;;;;;;;5.35;3.33;;;;;;;20.14;35.07;98202.16;4987201;28;20044;-95
2023/04/14 08:53:46;;;;;;;6.32;2.47;;;;;;;20.23;34.95;98213.63;4999002;28;20480;-95
2023/04/14 08:56:13;;;;;;;7.57;3.60;;;;;;;20.08;35.07;98228.97;4970455;28;20045;-95
2023/04/14 08:58:40;;;;;;;6.43;2.90;;;;;;;20.16;35.65;98252.56;4971331;28;20041;-95
2023/04/14 09:01:07;;;;;;;6.13;2.92;;;;;;;20.03;35.72;98229.28;4970495;28;20038;-94
2023/04/14 09:03:33;;;;;;;5.32;2.85;;;;;;;20.13;36.00;98256.03;4970158;28;20029;-92
2023/04/14 09:06:01;;;;;;;4.57;2.35;;;;;;;19.73;36.35;98229.03;4987717;28;20090;-95
2023/04/14 09:08:26;;;;;;;3.42;2.58;;;;;;;19.81;36.97;98241.69;5018459;28;20050;-94
2023/04/14 09:10:53;;;;;;;3.65;2.33;;;;;;;19.88;36.55;98252.78;4969529;28;20049;-95
2023/04/14 09:13:22;;;;;;;4.78;3.30;;;;;;;19.86;37.30;98254.25;5001280;28;20029;-94
2023/04/14 09:15:48;;;;;;;11.40;2.70;;;;;;;19.76;37.45;98250.16;5018506;28;20124;-95
2023/04/14 09:18:14;;;;;;;6.00;3.42;;;;;;;19.74;37.52;98260.66;4970907;28;20048;-94
2023/04/14 09:20:40;;;;;;;6.78;3.17;;;;;;;19.69;38.21;98261.69;4988368;28;20018;-95
2023/04/14 09:23:07;;;;;;;8.18;3.30;;;;;;;19.82;38.09;98287.00;4969304;28;20022;-96
2023/04/14 09:25:35;;;;;;;5.50;3.53;;;;;;;19.50;39.21;98264.38;4970412;28;20033;-95
2023/04/14 09:28:00;;;;;;;6.93;2.80;;;;;;;19.49;39.10;98260.06;5002605;28;20034;-95
2023/04/14 09:30:26;;;;;;;4.07;3.00;;;;;;;19.43;39.21;98272.41;4986442;28;20065;-95
2023/04/14 09:32:53;;;;;;;7.18;2.92;;;;;;;19.21;39.66;98258.25;4986738;28;20038;-95
2023/04/14 09:35:19;;;;;;;4.32;2.80;;;;;;;19.27;39.80;98266.97;5002324;28;20468;-95
2023/04/14 09:37:45;;;;;;;4.00;2.58;;;;;;;19.06;40.51;98257.09;4987936;28;20030;-95
2023/04/14 09:40:31;;;;;;;7.50;3.42;;;;;;;19.05;40.86;98266.44;4972572;28;20077;-93
2023/04/14 09:42:59;;;;;;;5.38;2.90;;;;;;;18.92;40.69;98251.28;5020565;28;20057;-95
2023/04/14 09:45:43;;;;;;;8.52;3.00;;;;;;;18.80;41.18;98256.81;5003008;28;20133;-95
2023/04/14 09:48:11;;;;;;;6.47;2.85;;;;;;;18.76;41.76;98270.34;4969843;28;20056;-94
2023/04/14 09:51:15;;;;;;;7.63;3.75;;;;;;;18.78;42.80;98285.25;4986705;28;20038;-94
2023/04/14 09:53:40;;;;;;;4.75;3.28;;;;;;;18.71;42.93;98276.06;4959565;29;20551;-94
2023/04/14 09:56:09;;;;;;;6.60;3.50;;;;;;;18.61;43.11;98274.63;4927775;29;20039;-95
2023/04/14 09:58:39;;;;;;;8.95;3.67;;;;;;;18.64;44.00;98298.47;4944132;29;20032;-93
2023/04/14 10:01:11;;;;;;;7.32;3.47;;;;;;;18.46;44.56;98292.53;4942213;29;20031;-94
2023/04/14 10:03:42;;;;;;;7.15;3.65;;;;;;;18.55;44.61;98306.81;4959840;29;20051;-95
2023/04/14 10:06:14;;;;;;;9.17;4.33;;;;;;;18.51;44.95;98313.28;4958942;29;20494;-93
2023/04/14 10:08:51;;;;;;;6.75;3.65;;;;;;;18.45;45.30;98301.84;4962062;28;20074;-95
2023/04/14 10:11:31;;;;;;;7.88;4.95;;;;;;;18.49;45.74;98330.00;4943214;29;20102;-94
2023/04/14 10:14:05;;;;;;;8.98;4.13;;;;;;;18.30;45.96;98308.03;4944257;29;20035;-95
2023/04/14 10:16:31;;;;;;;6.07;3.90;;;;;;;18.34;46.26;98325.28;4944270;29;20055;-95
2023/04/14 10:18:58;;;;;;;8.13;4.20;;;;;;;18.52;46.36;98331.25;4943904;29;20046;-94
2023/04/14 10:21:24;;;;;;;8.10;4.78;;;;;;;18.31;46.23;98306.91;4945022;29;20473;-95
2023/04/14 10:23:50;;;;;;;9.30;5.35;;;;;;;18.43;46.49;98325.94;4937140;28;20527;-93
2023/04/14 10:26:17;;;;;;;9.90;5.25;;;;;;;18.41;46.66;98327.41;4986689;28;20033;-95
2023/04/14 10:28:52;;;;;;;7.80;5.40;;;;;;;18.39;47.06;98344.13;4972935;28;20034;-94
2023/04/14 10:31:24;;;;;;;14.00;7.82;;;;;;;18.65;46.80;98356.53;5019038;28;20048;-95
2023/04/14 10:33:51;;;;;;;9.75;4.85;;;;;;;18.74;46.87;98346.28;5004733;28;20042;-94
2023/04/14 10:36:26;;;;;;;10.80;5.45;;;;;;;18.92;46.62;98347.53;4989527;28;20427;-95
2023/04/14 10:39:00;;;;;;;9.95;4.97;;;;;;;18.98;46.91;98359.00;4990677;28;20496;-94
2023/04/14 10:41:27;;;;;;;11.05;5.57;;;;;;;19.20;46.37;98368.56;4987779;28;20034;-92
2023/04/14 10:43:53;;;;;;;8.90;5.35;;;;;;;19.30;46.35;98370.78;4988594;28;20120;-94
2023/04/14 10:46:21;;;;;;;12.35;5.50;;;;;;;19.15;46.84;98387.91;5006323;28;20046;-94
2023/04/14 10:48:48;;;;;;;9.43;6.22;;;;;;;19.38;46.44;98382.66;4989343;28;20026;-94
2023/04/14 10:51:16;;;;;;;10.75;5.60;;;;;;;19.56;45.83;98372.97;5004790;28;20487;-94
2023/04/14 10:53:48;;;;;;;13.38;5.32;;;;;;;19.70;45.04;98358.09;4988790;28;20038;-94
2023/04/14 10:56:15;;;;;;;7.95;5.05;;;;;;;19.95;45.11;98373.13;4974552;28;20082;-94
2023/04/14 10:58:53;;;;;;;7.35;5.35;;;;;;;20.18;44.72;98384.19;4988144;28;20492;-94
2023/04/14 11:01:30;;;;;;;6.80;5.30;;;;;;;20.19;44.52;98354.91;5005432;28;20061;-95
2023/04/14 11:04:16;;;;;;;14.10;5.35;;;;;;;20.47;43.80;98365.66;5003976;28;20046;-94
2023/04/14 11:06:47;;;;;;;9.70;4.70;;;;;;;20.23;43.77;98374.13;4987497;28;20114;-94
2023/04/14 11:09:35;;;;;;;10.10;4.32;;;;;;;20.43;43.30;98375.75;5003825;28;20081;-95
2023/04/14 11:12:04;;;;;;;6.80;4.28;;;;;;;20.44;42.84;98357.38;5020347;28;20427;-95
2023/04/14 11:14:30;;;;;;;11.45;4.47;;;;;;;20.48;43.35;98364.53;5003859;28;20065;-94
2023/04/14 11:17:22;;;;;;;9.23;4.70;;;;;;;20.75;42.58;98381.09;4988447;28;20069;-95
2023/04/14 11:19:54;;;;;;;12.07;4.90;;;;;;;20.77;42.55;98387.81;4981982;28;20034;-95
2023/04/14 11:22:49;;;;;;;8.27;4.40;;;;;;;20.87;41.93;98391.09;4966791;28;20031;-95
2023/04/14 11:25:19;;;;;;;11.60;5.03;;;;;;;20.82;42.20;98375.00;4914298;28;20052;-96
2023/04/14 11:27:47;;;;;;;10.55;5.55;;;;;;;20.94;42.07;98385.78;4964567;28;20019;-94
2023/04/14 11:30:19;;;;;;;8.23;4.70;;;;;;;21.14;42.20;98403.75;4964631;28;20050;-95
2023/04/14 11:32:52;;;;;;;11.25;4.47;;;;;;;21.24;41.94;98391.41;4964893;28;20050;-96
2023/04/14 11:35:19;;;;;;;15.23;4.93;;;;;;;21.44;41.41;98378.50;4982882;28;20042;-95